createdAt,value
2019-05-01T00:00:15.965Z,99.99
2019-05-01T00:01:06.614Z,99.99
2019-05-01T00:02:06.654Z,99.99
2019-05-01T00:03:06.604Z,99.99
2019-05-01T00:04:06.603Z,99.99
2019-05-01T00:05:06.607Z,99.99
2019-05-01T00:06:06.616Z,99.99
2019-05-01T00:07:06.584Z,99.99
2019-05-01T00:08:06.572Z,99.99
2019-05-01T00:09:06.574Z,99.99
2019-05-01T00:10:06.643Z,99.99
2019-05-01T00:11:06.559Z,99.99
2019-05-01T00:12:06.557Z,99.99
2019-05-01T00:13:06.575Z,99.99
2019-05-01T00:14:06.567Z,99.99
2019-05-01T00:15:06.554Z,99.99
2019-05-01T00:16:06.564Z,99.99
2019-05-01T00:17:06.579Z,99.99
2019-05-01T00:18:06.563Z,99.99
2019-05-01T00:19:06.515Z,99.99
2019-05-01T00:20:06.511Z,99.99
2019-05-01T00:21:06.548Z,99.99
2019-05-01T00:22:06.550Z,99.99
2019-05-01T00:23:06.519Z,99.99
2019-05-01T00:24:06.518Z,99.99
2019-05-01T00:25:06.479Z,99.99
2019-05-01T00:26:06.469Z,99.99
2019-05-01T00:27:06.484Z,99.99
2019-05-01T00:28:06.480Z,99.99
2019-05-01T00:29:06.457Z,99.99
2019-05-01T00:30:06.458Z,99.99
2019-05-01T00:31:06.470Z,99.99
2019-05-01T00:32:06.438Z,99.99
2019-05-01T00:33:06.445Z,99.99
2019-05-01T00:34:06.427Z,99.99
2019-05-01T00:35:06.427Z,99.99
2019-05-01T00:36:06.464Z,99.99
2019-05-01T00:37:06.423Z,99.99
2019-05-01T00:38:06.397Z,99.99
2019-05-01T00:39:06.426Z,99.99
2019-05-01T00:40:06.401Z,99.99
2019-05-01T00:41:06.392Z,99.99
2019-05-01T00:42:06.377Z,99.99
2019-05-01T00:43:06.370Z,99.99
2019-05-01T00:44:06.370Z,99.99
2019-05-01T00:45:06.409Z,99.99
2019-05-01T00:46:06.345Z,99.99
2019-05-01T00:47:06.345Z,99.99
2019-05-01T00:48:06.363Z,99.99
2019-05-01T00:49:06.357Z,99.99
2019-05-01T00:50:06.368Z,99.99
2019-05-01T00:51:06.352Z,99.99
2019-05-01T00:52:06.463Z,99.99
2019-05-01T00:53:06.361Z,99.99
2019-05-01T00:54:06.341Z,99.99
2019-05-01T00:55:06.331Z,99.99
2019-05-01T00:56:06.313Z,99.99
2019-05-01T00:57:06.318Z,99.99
2019-05-01T00:58:06.285Z,99.99
2019-05-01T00:59:06.274Z,99.99
2019-05-01T01:00:15.109Z,99.99
2019-05-01T01:02:10.893Z,99.99
2019-05-01T01:03:10.788Z,99.99
2019-05-01T01:04:10.794Z,99.99
2019-05-01T01:05:10.758Z,99.99
2019-05-01T01:06:10.953Z,99.99
2019-05-01T01:07:10.762Z,99.99
2019-05-01T01:08:10.714Z,99.99
2019-05-01T01:09:10.706Z,99.99
2019-05-01T01:10:10.701Z,99.99
2019-05-01T01:11:10.697Z,99.99
2019-05-01T01:12:10.691Z,99.99
2019-05-01T01:13:10.683Z,99.99
2019-05-01T01:14:10.680Z,99.99
2019-05-01T01:15:10.685Z,99.99
2019-05-01T01:16:10.730Z,99.99
2019-05-01T01:17:10.702Z,99.99
2019-05-01T01:18:10.701Z,99.99
2019-05-01T01:19:10.734Z,99.99
2019-05-01T01:20:10.718Z,99.99
2019-05-01T01:21:10.662Z,99.99
2019-05-01T01:22:10.662Z,99.99
2019-05-01T01:23:10.660Z,99.99
2019-05-01T01:24:10.666Z,99.99
2019-05-01T01:25:10.679Z,99.99
2019-05-01T01:26:10.661Z,99.99
2019-05-01T01:27:10.644Z,99.99
2019-05-01T01:28:10.604Z,99.99
2019-05-01T01:29:10.620Z,99.99
2019-05-01T01:30:10.620Z,99.99
2019-05-01T01:31:10.591Z,99.99
2019-05-01T01:32:10.619Z,99.99
2019-05-01T01:33:10.548Z,99.99
2019-05-01T01:34:10.602Z,99.99
2019-05-01T01:35:10.604Z,99.99
2019-05-01T01:36:10.533Z,99.99
2019-05-01T01:37:10.536Z,99.99
2019-05-01T01:38:10.573Z,99.99
2019-05-01T01:39:10.560Z,99.99
2019-05-01T01:40:10.508Z,99.99
2019-05-01T01:41:10.600Z,99.99
2019-05-01T01:42:10.494Z,99.99
2019-05-01T01:43:10.522Z,99.99
2019-05-01T01:44:10.499Z,99.99
2019-05-01T01:45:10.512Z,99.99
2019-05-01T01:46:10.543Z,99.99
2019-05-01T01:47:10.506Z,99.99
2019-05-01T01:48:10.455Z,99.99
2019-05-01T01:49:10.503Z,99.99
2019-05-01T01:50:10.444Z,99.99
2019-05-01T01:51:10.484Z,99.99
2019-05-01T01:52:10.454Z,99.99
2019-05-01T01:53:10.467Z,99.99
2019-05-01T01:54:10.430Z,99.99
2019-05-01T01:55:10.423Z,99.99
2019-05-01T01:56:10.415Z,99.99
2019-05-01T01:57:10.416Z,99.99
2019-05-01T01:58:10.383Z,99.99
2019-05-01T01:59:10.454Z,99.99
2019-05-01T02:00:10.454Z,99.99
2019-05-01T02:01:10.401Z,99.99
2019-05-01T02:02:10.389Z,99.99
2019-05-01T02:03:10.354Z,99.99
2019-05-01T02:04:10.362Z,99.99
2019-05-01T02:05:10.338Z,99.99
2019-05-01T02:06:10.339Z,99.99
2019-05-01T02:07:10.321Z,99.99
2019-05-01T02:08:10.357Z,99.99
2019-05-01T02:09:10.322Z,99.99
2019-05-01T02:10:10.325Z,99.99
2019-05-01T02:11:10.300Z,99.99
2019-05-01T02:12:10.309Z,99.99
2019-05-01T02:13:10.296Z,99.99
2019-05-01T02:14:10.282Z,99.99
2019-05-01T02:15:10.287Z,99.99
2019-05-01T02:16:10.295Z,99.99
2019-05-01T02:17:10.305Z,99.99
2019-05-01T02:18:10.251Z,99.99
2019-05-01T02:19:10.280Z,99.99
2019-05-01T02:20:10.238Z,99.99
2019-05-01T02:21:10.231Z,99.99
2019-05-01T02:22:10.250Z,99.99
2019-05-01T02:23:10.227Z,99.99
2019-05-01T02:24:10.223Z,99.99
2019-05-01T02:25:10.197Z,99.99
2019-05-01T02:26:10.200Z,99.99
2019-05-01T02:27:10.207Z,99.99
2019-05-01T02:28:10.176Z,99.99
2019-05-01T02:29:10.182Z,99.99
2019-05-01T02:30:10.177Z,99.99
2019-05-01T02:31:26.706Z,99.99
2019-05-01T02:32:10.224Z,99.99
2019-05-01T02:33:10.194Z,99.99
2019-05-01T02:34:10.142Z,99.99
2019-05-01T02:35:10.152Z,99.99
2019-05-01T02:36:10.138Z,99.99
2019-05-01T02:37:10.142Z,99.99
2019-05-01T02:38:10.127Z,99.99
2019-05-01T02:39:10.155Z,99.99
2019-05-01T02:40:10.092Z,99.99
2019-05-01T02:41:10.124Z,99.99
2019-05-01T02:42:10.085Z,99.99
2019-05-01T02:43:10.092Z,99.99
2019-05-01T02:44:10.121Z,99.99
2019-05-01T02:45:10.066Z,99.99
2019-05-01T02:46:10.048Z,99.99
2019-05-01T02:47:10.039Z,99.99
2019-05-01T02:48:10.033Z,99.99
2019-05-01T02:49:10.077Z,99.99
2019-05-01T02:50:10.054Z,99.99
2019-05-01T02:51:10.026Z,99.99
2019-05-01T02:52:10.030Z,99.99
2019-05-01T02:53:10.022Z,99.99
2019-05-01T02:54:10.021Z,99.99
2019-05-01T02:55:09.994Z,99.99
2019-05-01T02:56:10.005Z,99.99
2019-05-01T02:57:09.967Z,99.99
2019-05-01T02:58:09.992Z,99.99
2019-05-01T02:59:09.953Z,99.99
2019-05-01T03:00:09.971Z,99.99
2019-05-01T03:01:09.942Z,99.99
2019-05-01T03:02:09.962Z,99.99
2019-05-01T03:03:09.941Z,99.99
2019-05-01T03:04:09.916Z,99.99
2019-05-01T03:05:09.908Z,99.99
2019-05-01T03:06:09.910Z,99.99
2019-05-01T03:07:09.899Z,99.99
2019-05-01T03:08:09.885Z,99.99
2019-05-01T03:09:09.929Z,99.99
2019-05-01T03:10:10.145Z,99.99
2019-05-01T03:11:09.858Z,99.99
2019-05-01T03:12:09.883Z,99.99
2019-05-01T03:13:09.873Z,99.99
2019-05-01T03:14:09.931Z,99.99
2019-05-01T03:15:09.846Z,99.99
2019-05-01T03:16:09.848Z,99.99
2019-05-01T03:17:09.853Z,99.99
2019-05-01T03:18:09.819Z,99.99
2019-05-01T03:19:09.820Z,99.99
2019-05-01T03:20:09.809Z,99.99
2019-05-01T03:21:09.791Z,99.99
2019-05-01T03:22:09.783Z,99.99
2019-05-01T03:23:09.773Z,99.99
2019-05-01T03:24:09.761Z,99.99
2019-05-01T03:25:09.764Z,99.99
2019-05-01T03:26:09.763Z,99.99
2019-05-01T03:27:09.762Z,99.99
2019-05-01T03:28:09.790Z,99.99
2019-05-01T03:29:09.728Z,99.99
2019-05-01T03:30:09.720Z,99.99
2019-05-01T03:31:09.739Z,99.99
2019-05-01T03:32:19.602Z,99.99
2019-05-01T03:33:09.696Z,99.99
2019-05-01T03:34:09.724Z,99.99
2019-05-01T03:35:09.685Z,99.99
2019-05-01T03:36:09.683Z,99.99
2019-05-01T03:37:09.713Z,99.99
2019-05-01T03:38:09.699Z,99.99
2019-05-01T03:39:09.728Z,99.99
2019-05-01T03:40:12.251Z,99.99
2019-05-01T03:41:09.640Z,99.99
2019-05-01T03:42:09.673Z,99.99
2019-05-01T03:43:09.654Z,99.99
2019-05-01T03:44:09.656Z,99.99
2019-05-01T03:45:18.322Z,99.99
2019-05-01T03:47:14.182Z,99.99
2019-05-01T03:48:14.090Z,99.99
2019-05-01T03:49:14.101Z,99.99
2019-05-01T03:50:22.859Z,99.99
2019-05-01T03:52:18.628Z,99.99
2019-05-01T03:53:18.540Z,99.99
2019-05-01T03:54:18.550Z,99.99
2019-05-01T03:55:18.577Z,99.99
2019-05-01T03:56:18.508Z,99.99
2019-05-01T03:57:18.494Z,99.99
2019-05-01T03:58:18.514Z,99.99
2019-05-01T03:59:18.484Z,99.99
2019-05-01T04:00:18.470Z,99.99
2019-05-01T04:01:18.485Z,99.99
2019-05-01T04:02:32.239Z,99.99
2019-05-01T04:03:18.461Z,99.99
2019-05-01T04:04:18.557Z,99.99
2019-05-01T04:05:18.477Z,99.99
2019-05-01T04:06:18.469Z,99.99
2019-05-01T04:24:39.477Z,99.99
2019-05-01T04:25:38.975Z,99.99
2019-05-01T04:27:43.804Z,99.99
2019-05-01T04:28:43.440Z,99.99
2019-05-01T04:30:38.812Z,99.99
2019-05-01T04:31:38.711Z,99.99
2019-05-01T04:33:43.196Z,99.99
2019-05-01T04:34:43.160Z,99.99
2019-05-01T04:35:43.155Z,99.99
2019-05-01T04:36:43.246Z,99.99
2019-05-01T04:37:43.115Z,99.99
2019-05-01T04:38:43.101Z,99.99
2019-05-01T04:39:43.106Z,99.99
2019-05-01T04:40:43.085Z,99.99
2019-05-01T04:41:43.092Z,99.99
2019-05-01T04:42:43.066Z,99.99
2019-05-01T04:43:43.062Z,99.99
2019-05-01T04:44:43.056Z,99.99
2019-05-01T04:45:43.072Z,99.99
2019-05-01T04:46:43.090Z,99.99
2019-05-01T04:47:43.031Z,99.99
2019-05-01T04:48:43.085Z,99.99
2019-05-01T04:49:43.074Z,99.99
2019-05-01T04:50:43.031Z,99.99
2019-05-01T04:51:43.127Z,99.99
2019-05-01T04:52:43.215Z,99.99
2019-05-01T04:53:43.154Z,99.99
2019-05-01T04:54:43.033Z,99.99
2019-05-01T04:55:43.032Z,99.99
2019-05-01T04:56:42.970Z,99.99
2019-05-01T04:57:43.037Z,99.99
2019-05-01T04:58:42.991Z,99.99
2019-05-01T04:59:43.003Z,99.99
2019-05-01T05:00:42.968Z,99.99
2019-05-01T05:01:42.978Z,99.99
2019-05-01T05:02:42.976Z,99.99
2019-05-01T05:03:42.939Z,99.99
2019-05-01T05:04:42.932Z,99.99
2019-05-01T05:05:43.010Z,99.65
2019-05-01T05:06:42.944Z,94.79
2019-05-01T05:07:42.942Z,91.60
2019-05-01T05:08:42.928Z,89.79
2019-05-01T05:09:42.967Z,86.92
2019-05-01T05:10:42.949Z,84.72
2019-05-01T05:11:42.930Z,83.91
2019-05-01T05:12:42.941Z,81.43
2019-05-01T05:13:42.942Z,80.85
2019-05-01T05:14:43.010Z,81.37
2019-05-01T05:15:42.953Z,79.88
2019-05-01T05:16:42.916Z,77.82
2019-05-01T05:17:42.953Z,75.95
2019-05-01T05:18:42.966Z,75.09
2019-05-01T05:19:42.984Z,75.27
2019-05-01T05:20:42.942Z,75.09
2019-05-01T05:21:42.973Z,73.88
2019-05-01T05:22:42.913Z,72.73
2019-05-01T05:23:42.926Z,72.92
2019-05-01T05:24:42.964Z,73.59
2019-05-01T05:25:42.975Z,73.50
2019-05-01T05:26:42.934Z,73.75
2019-05-01T05:27:42.936Z,77.11
2019-05-01T05:28:42.946Z,79.60
2019-05-01T05:29:43.019Z,81.76
2019-05-01T05:30:43.127Z,80.84
2019-05-01T05:31:42.932Z,81.13
2019-05-01T05:32:42.995Z,78.78
2019-05-01T05:33:42.926Z,74.77
2019-05-01T05:34:42.943Z,71.50
2019-05-01T05:35:42.997Z,67.47
2019-05-01T05:36:42.975Z,64.31
2019-05-01T05:37:42.964Z,64.12
2019-05-01T05:38:42.982Z,62.99
2019-05-01T05:39:42.952Z,61.84
2019-05-01T05:40:42.959Z,62.90
2019-05-01T05:41:42.965Z,63.57
2019-05-01T05:42:42.971Z,64.05
2019-05-01T05:43:42.998Z,62.45
2019-05-01T05:44:42.976Z,62.55
2019-05-01T05:45:42.990Z,61.78
2019-05-01T05:46:43.008Z,60.56
2019-05-01T05:47:43.029Z,58.98
2019-05-01T05:48:42.988Z,57.54
2019-05-01T05:49:43.012Z,57.37
2019-05-01T05:50:42.989Z,56.90
2019-05-01T05:51:43.044Z,55.57
2019-05-01T05:52:43.004Z,54.32
2019-05-01T05:53:43.025Z,55.70
2019-05-01T05:54:43.039Z,53.67
2019-05-01T05:55:43.048Z,53.58
2019-05-01T05:56:43.020Z,53.70
2019-05-01T05:57:43.019Z,53.61
2019-05-01T05:58:43.030Z,53.19
2019-05-01T05:59:43.063Z,53.00
2019-05-01T06:00:43.027Z,53.51
2019-05-01T06:01:43.026Z,53.31
2019-05-01T06:02:43.061Z,52.57
2019-05-01T06:03:43.041Z,50.93
2019-05-01T06:04:43.074Z,51.68
2019-05-01T06:05:43.106Z,52.30
2019-05-01T06:06:43.115Z,55.01
2019-05-01T06:07:43.103Z,59.77
2019-05-01T06:08:43.101Z,63.73
2019-05-01T06:09:44.692Z,67.15
2019-05-01T06:10:43.131Z,69.95
2019-05-01T06:11:43.342Z,71.52
2019-05-01T06:12:46.880Z,69.58
2019-05-01T06:13:43.144Z,68.27
2019-05-01T06:14:43.125Z,68.52
2019-05-01T06:15:43.127Z,70.03
2019-05-01T06:16:46.760Z,70.50
2019-05-01T06:17:43.123Z,71.23
2019-05-01T06:18:43.143Z,71.77
2019-05-01T06:19:45.833Z,73.15
2019-05-01T06:20:43.133Z,72.96
2019-05-01T06:21:43.126Z,73.63
2019-05-01T06:22:45.142Z,74.84
2019-05-01T06:23:43.171Z,74.55
2019-05-01T06:24:43.131Z,75.85
2019-05-01T06:25:43.130Z,77.09
2019-05-01T06:26:43.135Z,77.28
2019-05-01T06:27:44.740Z,76.62
2019-05-01T06:28:43.144Z,77.19
2019-05-01T06:29:43.134Z,77.44
2019-05-01T06:30:47.088Z,78.11
2019-05-01T06:31:43.142Z,80.21
2019-05-01T06:32:43.171Z,79.25
2019-05-01T06:33:44.409Z,79.60
2019-05-01T06:34:43.178Z,80.07
2019-05-01T06:35:43.163Z,80.36
2019-05-01T06:36:44.335Z,81.03
2019-05-01T06:37:43.159Z,80.55
2019-05-01T06:38:51.897Z,80.55
2019-05-01T06:40:47.635Z,81.13
2019-05-01T06:41:47.637Z,81.27
2019-05-01T06:42:50.147Z,82.04
2019-05-01T06:43:47.656Z,81.95
2019-05-01T06:44:47.644Z,83.00
2019-05-01T06:45:56.438Z,82.42
2019-05-01T06:47:52.744Z,83.57
2019-05-01T06:48:53.509Z,83.67
2019-05-01T06:49:52.119Z,83.67
2019-05-01T06:50:52.134Z,83.86
2019-05-01T06:51:53.402Z,83.28
2019-05-01T06:52:52.090Z,83.28
2019-05-01T06:53:52.092Z,83.47
2019-05-01T06:54:52.240Z,83.28
2019-05-01T06:55:52.137Z,83.86
2019-05-01T06:56:52.088Z,83.76
2019-05-01T06:57:52.094Z,83.86
2019-05-01T06:58:55.207Z,83.86
2019-05-01T06:59:52.083Z,84.72
2019-05-01T07:00:52.097Z,83.95
2019-05-01T07:01:53.379Z,84.72
2019-05-01T07:02:52.196Z,85.58
2019-05-01T07:04:03.663Z,84.86
2019-05-01T07:04:52.630Z,85.53
2019-05-01T07:05:54.444Z,85.29
2019-05-01T07:06:52.053Z,84.81
2019-05-01T07:07:53.204Z,84.52
2019-05-01T07:08:52.249Z,84.91
2019-05-01T07:09:52.078Z,84.33
2019-05-01T07:10:52.078Z,84.14
2019-05-01T07:11:53.156Z,84.43
2019-05-01T07:12:52.098Z,85.58
2019-05-01T07:13:52.067Z,86.43
2019-05-01T07:14:52.209Z,85.67
2019-05-01T07:15:52.027Z,85.29
2019-05-01T07:16:52.094Z,85.19
2019-05-01T07:17:52.026Z,85.38
2019-05-01T07:18:52.443Z,84.72
2019-05-01T07:19:52.102Z,84.72
2019-05-01T07:20:53.262Z,84.91
2019-05-01T07:21:52.627Z,85.29
2019-05-01T07:22:52.046Z,85.48
2019-05-01T07:23:52.493Z,85.86
2019-05-01T07:24:52.072Z,85.48
2019-05-01T07:25:52.043Z,85.38
2019-05-01T07:26:52.048Z,85.77
2019-05-01T07:27:53.983Z,85.38
2019-05-01T07:28:52.014Z,84.72
2019-05-01T07:29:51.993Z,84.72
2019-05-01T07:30:54.920Z,85.10
2019-05-01T07:31:52.031Z,84.72
2019-05-01T07:32:51.999Z,85.58
2019-05-01T07:33:52.464Z,85.00
2019-05-01T07:34:51.991Z,85.19
2019-05-01T07:37:32.589Z,85.58
2019-05-01T07:38:33.069Z,85.29
2019-05-01T07:39:32.788Z,85.29
2019-05-01T07:40:32.711Z,85.48
2019-05-01T07:41:33.989Z,85.58
2019-05-01T07:42:32.605Z,84.91
2019-05-01T07:43:32.507Z,85.48
2019-05-01T07:44:33.789Z,85.58
2019-05-01T07:45:32.528Z,84.91
2019-05-01T07:46:32.638Z,84.72
2019-05-01T07:47:32.479Z,85.29
2019-05-01T07:48:36.072Z,85.67
2019-05-01T07:49:32.483Z,84.91
2019-05-01T07:50:32.789Z,85.29
2019-05-01T07:51:32.458Z,85.67
2019-05-01T07:52:32.468Z,85.77
2019-05-01T07:53:32.477Z,85.38
2019-05-01T07:54:32.444Z,85.67
2019-05-01T07:55:32.466Z,84.91
2019-05-01T07:56:32.450Z,85.58
2019-05-01T07:57:34.315Z,85.86
2019-05-01T07:58:32.456Z,85.77
2019-05-01T07:59:32.439Z,85.58
2019-05-01T08:00:32.421Z,86.05
2019-05-01T08:01:32.450Z,87.01
2019-05-01T08:02:33.035Z,86.82
2019-05-01T08:03:32.450Z,86.43
2019-05-01T08:04:36.516Z,86.34
2019-05-01T08:05:32.438Z,86.43
2019-05-01T08:06:32.408Z,85.29
2019-05-01T08:07:33.593Z,86.05
2019-05-01T08:08:32.409Z,85.58
2019-05-01T08:09:32.402Z,85.58
2019-05-01T08:10:33.878Z,85.77
2019-05-01T08:11:32.433Z,85.38
2019-05-01T08:12:32.410Z,85.96
2019-05-01T08:13:35.067Z,85.33
2019-05-01T08:14:32.381Z,85.67
2019-05-01T08:15:32.804Z,86.05
2019-05-01T08:16:32.372Z,84.28
2019-05-01T08:17:32.366Z,83.80
2019-05-01T08:18:32.427Z,83.99
2019-05-01T08:19:34.757Z,84.76
2019-05-01T08:20:32.385Z,84.09
2019-05-01T08:21:32.359Z,84.76
2019-05-01T08:22:37.340Z,85.05
2019-05-01T08:23:32.368Z,85.24
2019-05-01T08:24:32.345Z,84.95
2019-05-01T08:25:33.289Z,84.76
2019-05-01T08:26:32.339Z,84.28
2019-05-01T08:27:32.367Z,84.19
2019-05-01T08:28:33.331Z,83.80
2019-05-01T08:29:32.361Z,84.76
2019-05-01T08:30:32.353Z,85.14
2019-05-01T08:31:32.330Z,84.38
2019-05-01T08:32:42.217Z,83.99
2019-05-01T08:34:48.522Z,84.76
2019-05-01T08:35:37.651Z,85.42
2019-05-01T08:36:36.809Z,84.80
2019-05-01T08:37:36.811Z,83.94
2019-05-01T08:38:36.935Z,83.75
2019-05-01T08:39:39.599Z,83.37
2019-05-01T08:40:37.354Z,83.65
2019-05-01T08:41:37.783Z,83.65
2019-05-01T08:42:37.684Z,83.56
2019-05-01T08:43:36.767Z,83.56
2019-05-01T08:44:36.782Z,83.94
2019-05-01T08:45:40.786Z,83.84
2019-05-01T08:46:36.762Z,83.27
2019-05-01T08:47:36.781Z,82.31
2019-05-01T08:48:37.750Z,81.74
2019-05-01T08:49:36.751Z,81.93
2019-05-01T08:50:36.767Z,80.82
2019-05-01T08:51:36.759Z,81.36
2019-05-01T08:52:36.771Z,81.55
2019-05-01T08:53:36.747Z,82.03
2019-05-01T08:54:36.734Z,82.22
2019-05-01T08:55:39.816Z,82.98
2019-05-01T08:56:44.618Z,82.31
2019-05-01T08:57:45.831Z,82.12
2019-05-01T08:59:55.670Z,81.74
2019-05-01T09:00:50.276Z,81.55
2019-05-01T09:03:07.814Z,82.03
2019-05-01T09:03:57.000Z,82.83
2019-05-01T09:05:02.444Z,82.70
2019-05-01T09:05:57.706Z,82.70
2019-05-01T09:06:56.947Z,83.22
2019-05-01T09:07:57.781Z,83.84
2019-05-01T09:08:56.945Z,83.94
2019-05-01T09:09:56.941Z,83.84
2019-05-01T09:11:00.261Z,83.31
2019-05-01T09:11:56.925Z,83.50
2019-05-01T09:12:56.925Z,83.60
2019-05-01T09:13:58.937Z,82.35
2019-05-01T09:14:56.930Z,80.92
2019-05-01T09:15:56.953Z,80.82
2019-05-01T09:16:56.913Z,81.68
2019-05-01T09:17:56.936Z,81.68
2019-05-01T09:18:56.932Z,80.92
2019-05-01T09:19:56.942Z,80.06
2019-05-01T09:20:56.999Z,81.02
2019-05-01T09:21:56.926Z,80.35
2019-05-01T09:22:56.894Z,79.33
2019-05-01T09:23:56.896Z,79.72
2019-05-01T09:24:59.900Z,78.38
2019-05-01T09:25:56.894Z,79.24
2019-05-01T09:26:56.897Z,79.68
2019-05-01T09:28:06.297Z,80.35
2019-05-01T09:30:10.536Z,78.76
2019-05-01T09:31:10.238Z,77.90
2019-05-01T09:33:06.993Z,78.43
2019-05-01T09:34:19.150Z,77.61
2019-05-01T09:36:00.515Z,78.28
2019-05-01T09:37:09.062Z,78.57
2019-05-01T09:39:13.814Z,78.38
2019-05-01T09:40:09.224Z,78.38
2019-05-01T09:41:04.759Z,77.51
2019-05-01T09:42:06.634Z,76.65
2019-05-01T09:43:04.754Z,76.56
2019-05-01T09:44:05.762Z,76.94
2019-05-01T09:45:04.769Z,77.33
2019-05-01T09:46:04.747Z,76.75
2019-05-01T09:47:04.743Z,75.60
2019-05-01T09:48:04.744Z,76.37
2019-05-01T09:49:04.735Z,77.61
2019-05-01T09:50:04.739Z,77.33
2019-05-01T09:51:05.474Z,78.19
2019-05-01T09:52:04.720Z,77.51
2019-05-01T09:53:04.702Z,77.70
2019-05-01T09:54:05.698Z,77.23
2019-05-01T09:55:04.724Z,77.55
2019-05-01T09:56:07.641Z,77.94
2019-05-01T09:57:04.745Z,77.08
2019-05-01T09:58:04.727Z,75.54
2019-05-01T09:59:04.733Z,76.60
2019-05-01T10:00:04.746Z,72.77
2019-05-01T10:01:04.699Z,70.76
2019-05-01T10:02:07.814Z,72.38
2019-05-01T10:03:04.695Z,73.82
2019-05-01T10:04:05.691Z,73.91
2019-05-01T10:05:06.746Z,71.17
2019-05-01T10:06:04.680Z,71.37
2019-05-01T10:07:04.729Z,71.08
2019-05-01T10:08:05.456Z,69.93
2019-05-01T10:09:04.693Z,70.03
2019-05-01T10:10:04.717Z,68.68
2019-05-01T10:11:05.105Z,65.91
2019-05-01T10:12:04.727Z,65.81
2019-05-01T10:13:04.761Z,66.48
2019-05-01T10:14:04.670Z,64.56
2019-05-01T10:15:04.700Z,67.44
2019-05-01T10:16:04.695Z,66.38
2019-05-01T10:17:04.681Z,64.09
2019-05-01T10:18:04.696Z,65.33
2019-05-01T10:19:04.668Z,65.42
2019-05-01T10:20:04.682Z,64.09
2019-05-01T10:21:04.732Z,59.90
2019-05-01T10:22:04.687Z,62.84
2019-05-01T10:23:07.873Z,60.96
2019-05-01T10:24:04.672Z,60.16
2019-05-01T10:25:08.561Z,62.55
2019-05-01T10:26:04.646Z,63.70
2019-05-01T10:27:04.714Z,64.56
2019-05-01T10:28:07.329Z,64.47
2019-05-01T10:29:04.659Z,62.68
2019-05-01T10:30:04.649Z,61.63
2019-05-01T10:31:13.679Z,62.30
2019-05-01T10:33:17.992Z,61.82
2019-05-01T10:34:09.205Z,63.03
2019-05-01T10:35:09.153Z,63.32
2019-05-01T10:36:17.752Z,62.74
2019-05-01T10:37:09.138Z,63.73
2019-05-01T10:38:10.635Z,62.65
2019-05-01T10:39:09.129Z,63.22
2019-05-01T10:40:09.108Z,63.64
2019-05-01T10:41:10.522Z,59.80
2019-05-01T10:42:09.176Z,60.19
2019-05-01T10:43:09.176Z,61.05
2019-05-01T10:44:09.178Z,62.96
2019-05-01T10:45:09.201Z,63.64
2019-05-01T10:46:09.180Z,63.32
2019-05-01T10:47:09.150Z,60.76
2019-05-01T10:48:09.114Z,60.99
2019-05-01T10:49:09.121Z,60.19
2019-05-01T10:50:09.115Z,58.65
2019-05-01T10:51:09.125Z,58.56
2019-05-01T10:52:14.241Z,58.65
2019-05-01T10:53:09.151Z,59.23
2019-05-01T10:54:09.157Z,59.42
2019-05-01T10:55:09.094Z,59.45
2019-05-01T10:56:09.106Z,56.76
2019-05-01T10:57:09.099Z,56.00
2019-05-01T10:58:12.863Z,58.20
2019-05-01T10:59:09.129Z,57.41
2019-05-01T11:00:09.128Z,58.75
2019-05-01T11:01:09.118Z,60.38
2019-05-01T11:02:09.098Z,58.37
2019-05-01T11:03:09.107Z,57.82
2019-05-01T11:04:09.174Z,57.79
2019-05-01T11:05:09.117Z,59.61
2019-05-01T11:06:09.118Z,58.39
2019-05-01T11:07:09.123Z,60.22
2019-05-01T11:08:09.128Z,60.22
2019-05-01T11:09:09.110Z,61.66
2019-05-01T11:10:09.100Z,60.22
2019-05-01T11:11:09.081Z,59.83
2019-05-01T11:12:09.096Z,60.70
2019-05-01T11:13:09.106Z,59.74
2019-05-01T11:14:09.105Z,59.74
2019-05-01T11:15:09.124Z,59.55
2019-05-01T11:16:09.133Z,60.12
2019-05-01T11:17:09.105Z,61.46
2019-05-01T11:18:09.116Z,59.67
2019-05-01T11:19:09.084Z,59.64
2019-05-01T11:20:09.095Z,61.56
2019-05-01T11:21:09.082Z,63.19
2019-05-01T11:22:09.109Z,62.52
2019-05-01T11:23:09.180Z,62.23
2019-05-01T11:24:09.087Z,61.66
2019-05-01T11:25:09.122Z,62.33
2019-05-01T11:26:09.104Z,60.53
2019-05-01T11:27:09.072Z,60.89
2019-05-01T11:28:09.127Z,60.31
2019-05-01T11:29:09.082Z,60.50
2019-05-01T11:30:09.087Z,58.11
2019-05-01T11:31:09.155Z,58.69
2019-05-01T11:32:09.102Z,59.26
2019-05-01T11:33:09.084Z,59.83
2019-05-01T11:34:09.067Z,59.26
2019-05-01T11:35:18.539Z,59.36
2019-05-01T11:37:18.436Z,59.93
2019-05-01T11:41:37.064Z,60.25
2019-05-01T11:42:37.135Z,61.02
2019-05-01T11:43:36.764Z,59.67
2019-05-01T11:44:36.642Z,58.52
2019-05-01T11:45:36.803Z,60.70
2019-05-01T11:46:36.733Z,60.79
2019-05-01T11:47:36.773Z,60.35
2019-05-01T11:48:36.613Z,61.02
2019-05-01T11:49:36.681Z,60.15
2019-05-01T11:50:36.657Z,59.77
2019-05-01T11:51:37.185Z,58.62
2019-05-01T11:52:36.630Z,58.23
2019-05-01T11:53:36.653Z,59.38
2019-05-01T11:54:36.632Z,58.91
2019-05-01T11:55:36.667Z,59.29
2019-05-01T11:56:36.613Z,59.86
2019-05-01T11:57:36.730Z,58.81
2019-05-01T11:58:36.726Z,58.42
2019-05-01T11:59:36.710Z,59.58
2019-05-01T12:00:36.656Z,59.29
2019-05-01T12:01:36.638Z,59.96
2019-05-01T12:02:36.618Z,60.05
2019-05-01T12:03:36.619Z,60.92
2019-05-01T12:04:36.624Z,59.80
2019-05-01T12:05:36.673Z,58.45
2019-05-01T12:06:36.646Z,59.19
2019-05-01T12:07:36.637Z,59.19
2019-05-01T12:08:36.611Z,60.44
2019-05-01T12:09:36.625Z,60.25
2019-05-01T12:10:36.666Z,58.84
2019-05-01T12:11:36.609Z,59.19
2019-05-01T12:12:36.681Z,60.05
2019-05-01T12:13:43.495Z,58.36
2019-05-01T12:14:36.905Z,58.91
2019-05-01T12:15:36.629Z,59.29
2019-05-01T12:16:36.615Z,57.88
2019-05-01T12:17:38.920Z,57.75
2019-05-01T12:18:36.629Z,58.04
2019-05-01T12:19:36.679Z,56.22
2019-05-01T12:20:36.675Z,56.98
2019-05-01T12:21:36.639Z,58.71
2019-05-01T12:22:36.636Z,56.63
2019-05-01T12:23:36.603Z,52.98
2019-05-01T12:24:45.340Z,52.89
2019-05-01T12:26:38.464Z,55.96
2019-05-01T12:27:38.839Z,55.67
2019-05-01T12:29:36.589Z,57.46
2019-05-01T12:30:34.594Z,55.00
2019-05-01T12:32:49.135Z,53.94
2019-05-01T12:33:39.220Z,55.47
2019-05-01T12:34:39.246Z,58.26
2019-05-01T12:35:39.250Z,58.36
2019-05-01T12:36:39.477Z,56.63
2019-05-01T12:37:39.278Z,58.00
2019-05-01T12:38:39.239Z,56.73
2019-05-01T12:39:47.980Z,56.44
2019-05-01T12:41:43.747Z,54.71
2019-05-01T12:42:43.938Z,55.29
2019-05-01T12:43:43.789Z,55.77
2019-05-01T12:44:43.805Z,56.89
2019-05-01T12:45:43.904Z,56.79
2019-05-01T12:46:43.923Z,54.71
2019-05-01T12:47:43.788Z,54.71
2019-05-01T12:48:43.777Z,55.77
2019-05-01T12:49:43.781Z,55.02
2019-05-01T12:50:43.981Z,55.86
2019-05-01T12:51:43.694Z,54.71
2019-05-01T12:52:46.185Z,54.16
2019-05-01T12:53:43.789Z,52.12
2019-05-01T12:54:43.692Z,52.05
2019-05-01T12:55:43.724Z,52.91
2019-05-01T12:56:43.699Z,52.14
2019-05-01T12:57:43.704Z,53.97
2019-05-01T12:58:43.691Z,54.64
2019-05-01T12:59:43.690Z,53.30
2019-05-01T13:00:43.690Z,53.30
2019-05-01T13:01:43.707Z,53.58
2019-05-01T13:02:43.689Z,54.25
2019-05-01T13:03:43.695Z,55.32
2019-05-01T13:04:43.726Z,53.66
2019-05-01T13:05:43.699Z,52.05
2019-05-01T13:06:49.523Z,51.37
2019-05-01T13:07:43.693Z,53.36
2019-05-01T13:08:43.696Z,54.04
2019-05-01T13:09:43.695Z,54.23
2019-05-01T13:10:43.696Z,54.42
2019-05-01T13:11:43.694Z,53.94
2019-05-01T13:12:43.704Z,53.58
2019-05-01T13:13:43.701Z,54.35
2019-05-01T13:14:43.684Z,53.01
2019-05-01T13:15:43.698Z,52.14
2019-05-01T13:16:43.691Z,51.37
2019-05-01T13:17:43.691Z,52.34
2019-05-01T13:18:43.690Z,52.72
2019-05-01T13:19:43.694Z,51.28
2019-05-01T13:22:48.193Z,52.79
2019-05-01T13:23:48.183Z,52.02
2019-05-01T13:24:48.193Z,52.98
2019-05-01T13:25:48.177Z,52.31
2019-05-01T13:26:48.184Z,52.12
2019-05-01T13:27:48.178Z,52.12
2019-05-01T13:28:48.176Z,53.08
2019-05-01T13:29:48.182Z,53.75
2019-05-01T13:30:48.194Z,54.71
2019-05-01T13:31:48.195Z,54.42
2019-05-01T13:32:48.204Z,54.42
2019-05-01T13:33:48.178Z,54.61
2019-05-01T13:34:48.186Z,55.47
2019-05-01T13:35:48.180Z,52.62
2019-05-01T13:36:48.174Z,53.97
2019-05-01T13:37:48.223Z,52.81
2019-05-01T13:38:48.178Z,51.47